Time;durP1;ratioP1;P1;durP2;ratioP2;P2;SDS_P1;SDS_P2;PMS_P1;PMS_P2;Temp;Humidity;BMP_temperature;BMP_pressure;BME280_temperature;BME280_humidity;BME280_pressure;Samples;Min_cycle;Max_cycle;Signal;HPM_P1;HPM_P2
2021/11/25 00:02:00;;;;;;;;;;;15.70;99.90;;;;;;5068098;28;856;-52
2021/11/25 00:04:27;;;;;;;;;;;15.70;99.90;;;;;;5052566;28;884;-53
2021/11/25 00:06:55;;;;;;;;;;;15.70;99.90;;;;;;5076639;28;842;-52
2021/11/25 00:09:22;;;;;;;;;;;15.70;99.90;;;;;;5076865;28;818;-52
2021/11/25 00:11:48;;;;;;;;;;;15.60;99.90;;;;;;5076495;28;853;-52
2021/11/25 00:14:15;;;;;;;;;;;15.60;99.90;;;;;;5074908;28;836;-52
2021/11/25 00:16:41;;;;;;;;;;;15.60;99.90;;;;;;5076586;28;794;-52
2021/11/25 00:19:07;;;;;;;;;;;15.50;99.90;;;;;;5076425;28;1898;-52
2021/11/25 00:21:33;;;;;;;;;;;15.50;99.90;;;;;;5072301;28;1464;-53
2021/11/25 00:23:59;;;;;;;;;;;15.40;99.90;;;;;;5065664;28;1083;-52
2021/11/25 00:26:26;;;;;;;;;;;15.50;99.90;;;;;;5057818;28;1067;-52
2021/11/25 00:28:53;;;;;;;;;;;15.40;99.90;;;;;;5076015;28;899;-52
2021/11/25 00:31:19;;;;;;;;;;;15.40;99.90;;;;;;5065374;28;1253;-52
2021/11/25 00:33:45;;;;;;;;;;;15.40;99.90;;;;;;5057906;28;801;-52
2021/11/25 00:36:11;;;;;;;;;;;15.30;99.90;;;;;;5061697;28;1359;-53
2021/11/25 00:38:37;;;;;;;;;;;15.30;99.90;;;;;;5058427;28;1918;-53
2021/11/25 00:41:03;;;;;;;;;;;15.30;99.90;;;;;;5056890;28;886;-52
2021/11/25 00:43:29;;;;;;;;;;;15.30;99.90;;;;;;5062710;28;868;-52
2021/11/25 00:45:55;;;;;;;;;;;15.20;99.90;;;;;;5057803;28;1317;-52
2021/11/25 00:48:21;;;;;;;;;;;15.30;99.90;;;;;;5075149;28;1039;-52
2021/11/25 00:50:47;;;;;;;;;;;15.20;99.90;;;;;;5075726;28;828;-52
2021/11/25 00:53:14;;;;;;;;;;;15.20;99.90;;;;;;5057960;28;992;-53
2021/11/25 00:55:42;;;;;;;;;;;15.20;99.90;;;;;;5075579;28;769;-52
2021/11/25 00:58:10;;;;;;;;;;;15.10;99.90;;;;;;5075953;28;811;-52
2021/11/25 01:00:38;;;;;;;;;;;15.10;99.90;;;;;;5075520;28;1906;-52
2021/11/25 01:03:05;;;;;;;;;;;15.10;99.90;;;;;;5075556;28;833;-52
2021/11/25 01:05:31;;;;;;;;;;;15.10;99.90;;;;;;5075365;28;860;-52
2021/11/25 01:07:58;;;;;;;;;;;15.10;99.90;;;;;;5075498;28;825;-52
2021/11/25 01:10:25;;;;;;;;;;;15.00;99.90;;;;;;5075437;28;885;-52
2021/11/25 01:12:51;;;;;;;;;;;15.00;99.90;;;;;;5071730;28;869;-53
2021/11/25 01:15:18;;;;;;;;;;;15.00;99.90;;;;;;5075439;28;841;-52
2021/11/25 01:17:44;;;;;;;;;;;15.00;99.90;;;;;;5074970;28;1689;-52
2021/11/25 01:20:14;;;;;;;;;;;15.00;99.90;;;;;;5075196;28;1964;-52
2021/11/25 01:22:40;;;;;;;;;;;14.90;99.90;;;;;;5075576;28;833;-52
2021/11/25 01:25:08;;;;;;;;;;;14.90;99.90;;;;;;5074884;28;1234;-52
2021/11/25 01:27:35;;;;;;;;;;;14.90;99.90;;;;;;5075359;28;846;-52
2021/11/25 01:30:01;;;;;;;;;;;14.90;99.90;;;;;;5058542;28;950;-52
2021/11/25 01:32:27;;;;;;;;;;;14.80;99.90;;;;;;5057073;28;805;-52
2021/11/25 01:34:55;;;;;;;;;;;14.80;99.90;;;;;;5056696;28;875;-52
2021/11/25 01:37:23;;;;;;;;;;;14.80;99.90;;;;;;5055470;28;1568;-53
2021/11/25 01:39:49;;;;;;;;;;;14.80;99.90;;;;;;5056046;28;1965;-52
2021/11/25 01:42:15;;;;;;;;;;;14.80;99.90;;;;;;5056556;28;762;-52
2021/11/25 01:44:42;;;;;;;;;;;14.80;99.90;;;;;;5072990;28;1249;-53
2021/11/25 01:47:09;;;;;;;;;;;14.70;99.90;;;;;;5054401;28;920;-52
2021/11/25 01:49:37;;;;;;;;;;;14.70;99.90;;;;;;5075080;28;912;-52
2021/11/25 01:52:03;;;;;;;;;;;14.70;99.90;;;;;;5074850;28;840;-52
2021/11/25 01:54:29;;;;;;;;;;;14.70;99.90;;;;;;5074984;28;897;-53
2021/11/25 01:56:56;;;;;;;;;;;14.70;99.90;;;;;;5069515;28;805;-53
2021/11/25 01:59:23;;;;;;;;;;;14.60;99.90;;;;;;5056332;28;1976;-52
2021/11/25 02:01:50;;;;;;;;;;;14.60;99.90;;;;;;5056827;28;1302;-51
2021/11/25 02:04:16;;;;;;;;;;;14.60;99.90;;;;;;5056484;28;1303;-50
2021/11/25 02:06:44;;;;;;;;;;;14.60;99.90;;;;;;5038609;28;905;-50
2021/11/25 02:09:11;;;;;;;;;;;14.60;99.90;;;;;;5056673;28;826;-51
2021/11/25 02:11:38;;;;;;;;;;;14.60;99.90;;;;;;5056298;28;755;-50
2021/11/25 02:14:04;;;;;;;;;;;14.60;99.90;;;;;;5067253;28;860;-50
2021/11/25 02:16:30;;;;;;;;;;;14.50;99.90;;;;;;5064058;28;884;-50
2021/11/25 02:18:57;;;;;;;;;;;14.50;99.90;;;;;;5056298;28;1898;-50
2021/11/25 02:21:24;;;;;;;;;;;14.50;99.90;;;;;;5056197;28;765;-50
2021/11/25 02:23:50;;;;;;;;;;;14.50;99.90;;;;;;5058048;28;839;-50
2021/11/25 02:26:16;;;;;;;;;;;14.50;99.90;;;;;;5060174;28;797;-50
2021/11/25 02:28:43;;;;;;;;;;;14.50;99.90;;;;;;5060567;28;1151;-51
2021/11/25 02:31:11;;;;;;;;;;;14.40;99.90;;;;;;5060111;28;841;-50
2021/11/25 02:33:39;;;;;;;;;;;14.40;99.90;;;;;;5025446;28;1448;-50
2021/11/25 02:36:07;;;;;;;;;;;14.40;99.90;;;;;;5059803;28;922;-50
2021/11/25 02:38:33;;;;;;;;;;;14.40;99.90;;;;;;5024798;28;1326;-50
2021/11/25 02:40:59;;;;;;;;;;;14.40;99.90;;;;;;5059794;28;1969;-50
2021/11/25 02:43:27;;;;;;;;;;;14.40;99.90;;;;;;5062692;28;861;-50
2021/11/25 02:45:57;;;;;;;;;;;14.40;99.90;;;;;;5075781;28;1253;-50
2021/11/25 02:48:28;;;;;;;;;;;14.30;99.90;;;;;;5078251;28;923;-50
2021/11/25 02:50:55;;;;;;;;;;;14.40;99.90;;;;;;5078066;28;904;-50
2021/11/25 02:53:25;;;;;;;;;;;14.30;99.90;;;;;;5078960;28;837;-50
2021/11/25 02:55:55;;;;;;;;;;;14.30;99.90;;;;;;5078509;28;829;-49
2021/11/25 02:58:21;;;;;;;;;;;14.30;99.90;;;;;;5078052;28;919;-50
2021/11/25 03:00:49;;;;;;;;;;;14.30;99.90;;;;;;5078085;28;2305;-49
2021/11/25 03:03:16;;;;;;;;;;;14.30;99.90;;;;;;5057732;28;880;-49
2021/11/25 03:05:46;;;;;;;;;;;14.30;99.90;;;;;;5059362;28;943;-49
2021/11/25 03:08:15;;;;;;;;;;;14.20;99.90;;;;;;5059860;28;737;-50
2021/11/25 03:10:45;;;;;;;;;;;14.20;99.90;;;;;;5059468;28;777;-50
2021/11/25 03:13:12;;;;;;;;;;;14.20;99.90;;;;;;5056349;28;986;-49
2021/11/25 03:15:39;;;;;;;;;;;14.20;99.90;;;;;;5077731;28;837;-49
2021/11/25 03:18:06;;;;;;;;;;;14.20;99.90;;;;;;5059749;28;1054;-50
2021/11/25 03:20:32;;;;;;;;;;;14.20;99.90;;;;;;5077530;28;1963;-50
2021/11/25 03:22:59;;;;;;;;;;;14.10;99.90;;;;;;5077411;28;837;-50
2021/11/25 03:25:25;;;;;;;;;;;14.20;99.90;;;;;;5077182;28;877;-50
2021/11/25 03:27:51;;;;;;;;;;;14.20;99.90;;;;;;5077635;28;774;-50
2021/11/25 03:30:18;;;;;;;;;;;14.20;99.90;;;;;;5078127;28;780;-50
2021/11/25 03:32:46;;;;;;;;;;;14.20;99.90;;;;;;5062833;28;892;-50
2021/11/25 03:35:14;;;;;;;;;;;14.10;99.90;;;;;;5058938;28;777;-50
2021/11/25 03:37:41;;;;;;;;;;;14.10;99.90;;;;;;5059224;28;857;-50
2021/11/25 03:40:08;;;;;;;;;;;14.10;99.90;;;;;;5059560;28;1898;-50
2021/11/25 03:42:34;;;;;;;;;;;14.10;99.90;;;;;;5058941;28;863;-50
2021/11/25 03:45:00;;;;;;;;;;;14.10;99.90;;;;;;5075568;28;1022;-50
2021/11/25 03:47:26;;;;;;;;;;;14.10;99.90;;;;;;5077200;28;866;-50
2021/11/25 03:49:52;;;;;;;;;;;14.10;99.90;;;;;;5062586;28;832;-50
2021/11/25 03:52:19;;;;;;;;;;;14.00;99.90;;;;;;5058539;28;898;-50
2021/11/25 03:54:45;;;;;;;;;;;14.00;99.90;;;;;;5058884;28;863;-50
2021/11/25 03:57:11;;;;;;;;;;;14.00;99.90;;;;;;5058297;28;884;-50
2021/11/25 03:59:37;;;;;;;;;;;14.00;99.90;;;;;;5058506;28;1910;-50
2021/11/25 04:02:03;;;;;;;;;;;14.00;99.90;;;;;;5058729;28;829;-50
2021/11/25 04:04:29;;;;;;;;;;;14.00;99.90;;;;;;5059113;28;916;-51
2021/11/25 04:06:55;;;;;;;;;;;13.90;99.90;;;;;;5059147;28;837;-51
2021/11/25 04:09:21;;;;;;;;;;;13.90;99.90;;;;;;5058594;28;893;-51
2021/11/25 04:11:48;;;;;;;;;;;13.90;99.90;;;;;;5040843;28;961;-51
2021/11/25 04:14:15;;;;;;;;;;;13.90;99.90;;;;;;5071538;28;797;-50
2021/11/25 04:16:41;;;;;;;;;;;13.90;99.90;;;;;;5077505;28;797;-51
2021/11/25 04:19:08;;;;;;;;;;;13.90;99.90;;;;;;5055237;28;1945;-50
2021/11/25 04:21:34;;;;;;;;;;;13.90;99.90;;;;;;5057979;28;1083;-50
2021/11/25 04:23:59;;;;;;;;;;;13.90;99.90;;;;;;5058572;28;833;-50
2021/11/25 04:26:25;;;;;;;;;;;13.90;99.90;;;;;;5057906;28;1091;-50
2021/11/25 04:28:53;;;;;;;;;;;13.80;99.90;;;;;;5057994;28;753;-50
2021/11/25 04:36:53;;;;;;;;;;;13.80;99.90;;;;;;5057751;28;888;-51
2021/11/25 04:39:20;;;;;;;;;;;13.80;99.90;;;;;;5058022;28;1902;-51
2021/11/25 04:45:00;;;;;;;;;;;13.80;99.90;;;;;;5100033;22;2305;-54
2021/11/25 04:47:26;;;;;;;;;;;13.80;99.90;;;;;;5075512;28;1954;-53
2021/11/25 04:49:54;;;;;;;;;;;13.80;99.90;;;;;;5041913;28;1042;-53
2021/11/25 04:52:22;;;;;;;;;;;13.70;99.90;;;;;;5076430;28;822;-53
2021/11/25 04:54:48;;;;;;;;;;;13.70;99.90;;;;;;5075268;28;1330;-53
2021/11/25 04:57:16;;;;;;;;;;;13.70;99.90;;;;;;5076420;28;995;-52
2021/11/25 04:59:42;;;;;;;;;;;13.70;99.90;;;;;;5076545;28;1913;-53
2021/11/25 05:02:30;;;;;;;;;;;13.70;99.90;;;;;;5058698;28;949;-53
2021/11/25 05:05:18;;;;;;;;;;;13.70;99.90;;;;;;5073046;28;1101;-51
2021/11/25 05:07:45;;;;;;;;;;;13.70;99.90;;;;;;5075967;28;889;-51
2021/11/25 05:10:13;;;;;;;;;;;13.70;99.90;;;;;;5076461;28;781;-51
2021/11/25 05:12:43;;;;;;;;;;;13.70;99.90;;;;;;5076207;28;935;-51
2021/11/25 05:15:13;;;;;;;;;;;13.60;99.90;;;;;;5022733;28;1165;-51
2021/11/25 05:17:40;;;;;;;;;;;13.60;99.90;;;;;;5025211;28;898;-51
2021/11/25 05:20:07;;;;;;;;;;;13.60;99.90;;;;;;5076107;28;1963;-51
2021/11/25 05:22:35;;;;;;;;;;;13.60;99.90;;;;;;5076288;28;758;-51
2021/11/25 05:25:04;;;;;;;;;;;13.60;99.90;;;;;;5075893;28;889;-51
2021/11/25 05:27:31;;;;;;;;;;;13.60;99.90;;;;;;5075334;28;976;-51
2021/11/25 05:30:00;;;;;;;;;;;13.60;99.90;;;;;;5075927;28;844;-51
2021/11/25 05:32:27;;;;;;;;;;;13.60;99.90;;;;;;5008683;28;1346;-51
2021/11/25 05:34:54;;;;;;;;;;;13.60;99.90;;;;;;5076105;28;761;-51
2021/11/25 05:37:22;;;;;;;;;;;13.60;99.90;;;;;;5021546;28;1017;-51
2021/11/25 05:39:48;;;;;;;;;;;13.60;99.90;;;;;;5004434;28;1962;-51
2021/11/25 05:42:15;;;;;;;;;;;13.50;99.90;;;;;;5054247;28;1067;-51
2021/11/25 05:44:43;;;;;;;;;;;13.50;99.90;;;;;;5025181;28;1132;-51
2021/11/25 05:47:12;;;;;;;;;;;13.50;99.90;;;;;;5074296;28;844;-51
2021/11/25 05:49:39;;;;;;;;;;;13.50;99.90;;;;;;5074260;28;915;-51
2021/11/25 05:52:05;;;;;;;;;;;13.50;99.90;;;;;;5074321;28;988;-52
2021/11/25 05:54:31;;;;;;;;;;;13.50;99.90;;;;;;5040946;28;962;-51
2021/11/25 05:56:57;;;;;;;;;;;13.50;99.90;;;;;;5074408;28;1028;-51
2021/11/25 05:59:23;;;;;;;;;;;13.50;99.90;;;;;;5057511;28;1909;-52
2021/11/25 06:01:50;;;;;;;;;;;13.50;99.90;;;;;;5074237;28;1066;-53
2021/11/25 06:04:18;;;;;;;;;;;13.50;99.90;;;;;;5073869;28;875;-51
2021/11/25 06:06:46;;;;;;;;;;;13.50;99.90;;;;;;5007617;28;912;-51
2021/11/25 06:09:14;;;;;;;;;;;13.60;99.90;;;;;;5074955;28;947;-51
2021/11/25 06:11:42;;;;;;;;;;;13.60;99.90;;;;;;5075938;28;837;-51
2021/11/25 06:14:10;;;;;;;;;;;13.60;99.90;;;;;;5075749;28;816;-51
2021/11/25 06:16:39;;;;;;;;;;;13.60;99.90;;;;;;5057723;28;988;-51
2021/11/25 06:19:04;;;;;;;;;;;13.70;99.90;;;;;;5057641;28;916;-51
2021/11/25 06:21:30;;;;;;;;;;;13.70;99.90;;;;;;5075356;28;1975;-51
2021/11/25 06:23:58;;;;;;;;;;;13.70;99.90;;;;;;5072966;28;994;-55
2021/11/25 06:26:26;;;;;;;;;;;13.80;99.90;;;;;;5057719;28;1035;-52
2021/11/25 06:28:55;;;;;;;;;;;13.80;99.90;;;;;;5057584;28;977;-51
2021/11/25 06:31:22;;;;;;;;;;;13.80;99.90;;;;;;5074976;28;1370;-51
2021/11/25 06:33:51;;;;;;;;;;;13.80;99.90;;;;;;5076091;28;907;-51
2021/11/25 06:36:18;;;;;;;;;;;13.90;99.90;;;;;;5076436;28;905;-51
2021/11/25 06:38:49;;;;;;;;;;;13.90;99.90;;;;;;5075257;28;856;-51
2021/11/25 06:41:16;;;;;;;;;;;13.90;99.90;;;;;;5074730;28;1905;-51
2021/11/25 06:43:43;;;;;;;;;;;13.90;99.90;;;;;;5056436;28;1171;-51
2021/11/25 06:46:14;;;;;;;;;;;13.80;99.90;;;;;;5073794;28;1245;-51
2021/11/25 06:48:41;;;;;;;;;;;13.90;99.90;;;;;;5040515;28;1008;-51
2021/11/25 06:51:10;;;;;;;;;;;13.80;99.90;;;;;;5040609;28;893;-51
2021/11/25 06:53:40;;;;;;;;;;;13.80;99.90;;;;;;5074419;28;817;-51
2021/11/25 06:56:06;;;;;;;;;;;13.80;99.90;;;;;;5075375;28;830;-52
2021/11/25 06:58:32;;;;;;;;;;;13.80;99.90;;;;;;5057034;28;1093;-52
2021/11/25 07:01:17;;;;;;;;;;;13.80;99.90;;;;;;5060294;28;1961;-52
2021/11/25 07:03:45;;;;;;;;;;;13.80;99.90;;;;;;5075201;28;777;-52
2021/11/25 07:06:12;;;;;;;;;;;13.70;99.90;;;;;;5075112;28;824;-53
2021/11/25 07:08:40;;;;;;;;;;;13.70;99.90;;;;;;5040275;28;911;-51
2021/11/25 07:11:06;;;;;;;;;;;13.70;99.90;;;;;;5078333;28;829;-51
2021/11/25 07:13:34;;;;;;;;;;;13.70;99.90;;;;;;5061015;28;1198;-51
2021/11/25 07:16:07;;;;;;;;;;;13.70;99.90;;;;;;5044004;28;1010;-51
2021/11/25 07:18:41;;;;;;;;;;;13.70;99.90;;;;;;5062190;28;821;-51
2021/11/25 07:21:08;;;;;;;;;;;13.60;99.90;;;;;;5060316;28;1902;-51
2021/11/25 07:23:34;;;;;;;;;;;13.60;99.90;;;;;;5026547;28;1052;-51
2021/11/25 07:26:08;;;;;;;;;;;13.60;99.90;;;;;;5077727;28;876;-51
2021/11/25 07:28:36;;;;;;;;;;;13.60;99.90;;;;;;5044185;28;907;-51
2021/11/25 07:31:03;;;;;;;;;;;13.60;99.90;;;;;;5077417;28;964;-51
2021/11/25 07:33:30;;;;;;;;;;;13.50;99.90;;;;;;5060003;28;909;-51
2021/11/25 07:35:58;;;;;;;;;;;13.50;99.90;;;;;;5024826;28;1096;-51
2021/11/25 07:38:25;;;;;;;;;;;13.50;99.90;;;;;;5077204;28;1155;-51
2021/11/25 07:40:53;;;;;;;;;;;13.50;99.90;;;;;;5077816;28;1906;-49
2021/11/25 07:43:20;;;;;;;;;;;13.50;99.90;;;;;;5076073;28;1071;-50
2021/11/25 07:45:48;;;;;;;;;;;13.50;99.90;;;;;;5075361;28;1353;-50
2021/11/25 07:48:15;;;;;;;;;;;13.50;99.90;;;;;;5059448;28;1151;-50
2021/11/25 07:50:42;;;;;;;;;;;13.40;99.90;;;;;;5077555;28;1048;-50
2021/11/25 07:53:09;;;;;;;;;;;13.40;99.90;;;;;;5040640;28;1291;-50
2021/11/25 07:55:37;;;;;;;;;;;13.40;99.90;;;;;;5076999;28;1080;-50
2021/11/25 07:58:03;;;;;;;;;;;13.40;99.90;;;;;;5075996;28;904;-50
2021/11/25 08:00:36;;;;;;;;;;;13.40;99.90;;;;;;5042827;28;1910;-50
2021/11/25 08:03:03;;;;;;;;;;;13.50;99.90;;;;;;5042389;28;1022;-51
2021/11/25 08:05:31;;;;;;;;;;;13.70;99.90;;;;;;5024489;28;1646;-51
2021/11/25 08:07:59;;;;;;;;;;;13.80;99.90;;;;;;5076983;28;1710;-51
2021/11/25 08:10:26;;;;;;;;;;;13.90;99.90;;;;;;5076024;28;1527;-51
2021/11/25 08:12:59;;;;;;;;;;;14.00;99.90;;;;;;5012516;28;1159;-51
2021/11/25 08:15:26;;;;;;;;;;;14.20;99.90;;;;;;5075548;28;1632;-51
2021/11/25 08:17:53;;;;;;;;;;;14.30;99.90;;;;;;5077022;28;993;-51
2021/11/25 08:20:20;;;;;;;;;;;14.40;99.90;;;;;;5004912;28;1971;-51
2021/11/25 08:22:51;;;;;;;;;;;14.50;99.90;;;;;;5076289;28;1429;-51
2021/11/25 08:25:35;;;;;;;;;;;14.50;99.90;;;;;;5077016;28;912;-51
2021/11/25 08:28:03;;;;;;;;;;;14.60;99.90;;;;;;5073968;28;1206;-51
2021/11/25 08:30:31;;;;;;;;;;;14.60;99.90;;;;;;5076593;28;1262;-51
2021/11/25 08:32:58;;;;;;;;;;;14.70;99.90;;;;;;5056287;28;1519;-51
2021/11/25 08:35:25;;;;;;;;;;;14.80;99.90;;;;;;5076357;28;1163;-51
2021/11/25 08:37:52;;;;;;;;;;;14.90;99.90;;;;;;5059551;28;770;-51
2021/11/25 08:40:18;;;;;;;;;;;15.00;99.90;;;;;;5041494;28;1981;-51
2021/11/25 08:42:46;;;;;;;;;;;15.10;99.90;;;;;;5042126;28;979;-51
2021/11/25 08:45:14;;;;;;;;;;;15.30;99.90;;;;;;5047085;28;1340;-51
2021/11/25 08:47:43;;;;;;;;;;;15.50;99.90;;;;;;5075844;28;943;-51
2021/11/25 08:50:11;;;;;;;;;;;15.60;99.90;;;;;;5073847;28;1547;-51
2021/11/25 08:52:38;;;;;;;;;;;15.80;99.90;;;;;;5039919;28;1267;-51
2021/11/25 08:55:06;;;;;;;;;;;15.80;99.90;;;;;;5076106;28;1032;-51
2021/11/25 08:57:34;;;;;;;;;;;16.00;99.90;;;;;;5058002;28;965;-51
2021/11/25 09:00:01;;;;;;;;;;;16.10;99.90;;;;;;5058390;28;1906;-51
2021/11/25 09:02:30;;;;;;;;;;;16.20;99.90;;;;;;5074851;28;1246;-51
2021/11/25 09:04:58;;;;;;;;;;;16.20;99.90;;;;;;5075948;28;976;-51
2021/11/25 09:07:24;;;;;;;;;;;16.20;99.90;;;;;;5076438;28;838;-53
2021/11/25 09:09:51;;;;;;;;;;;16.20;99.90;;;;;;5072606;28;1285;-54
2021/11/25 09:12:19;;;;;;;;;;;16.20;99.90;;;;;;5040446;28;1139;-54
2021/11/25 09:14:48;;;;;;;;;;;16.30;99.90;;;;;;5076112;28;1599;-54
2021/11/25 09:17:14;;;;;;;;;;;16.30;99.90;;;;;;5076163;28;1080;-54
2021/11/25 09:19:43;;;;;;;;;;;16.40;99.90;;;;;;5076584;28;842;-53
2021/11/25 09:22:11;;;;;;;;;;;16.40;99.90;;;;;;5075801;28;2042;-53
2021/11/25 09:24:38;;;;;;;;;;;16.40;99.90;;;;;;5075690;28;911;-54
2021/11/25 09:27:04;;;;;;;;;;;16.40;99.90;;;;;;5075038;28;1017;-53
2021/11/25 09:29:31;;;;;;;;;;;16.40;99.90;;;;;;5076899;28;1123;-53
2021/11/25 09:31:59;;;;;;;;;;;16.40;99.90;;;;;;5057431;28;914;-53
2021/11/25 09:34:27;;;;;;;;;;;16.40;99.90;;;;;;5076882;28;985;-53
2021/11/25 09:36:56;;;;;;;;;;;16.40;99.90;;;;;;5058964;28;990;-54
2021/11/25 09:39:25;;;;;;;;;;;16.40;99.90;;;;;;5079380;28;842;-54
2021/11/25 09:41:55;;;;;;;;;;;16.50;99.90;;;;;;5077819;28;1897;-53
2021/11/25 09:44:21;;;;;;;;;;;16.50;99.90;;;;;;5058925;28;1157;-52
2021/11/25 09:46:52;;;;;;;;;;;16.50;99.90;;;;;;5023846;28;1143;-53
2021/11/25 09:49:22;;;;;;;;;;;16.40;99.90;;;;;;5055322;28;1261;-54
2021/11/25 09:51:50;;;;;;;;;;;16.50;99.90;;;;;;5041475;28;1451;-53
2021/11/25 09:54:17;;;;;;;;;;;16.50;99.90;;;;;;5075373;28;1246;-53
2021/11/25 09:56:45;;;;;;;;;;;16.60;99.90;;;;;;5076265;28;871;-53
2021/11/25 09:59:18;;;;;;;;;;;16.70;99.90;;;;;;5076202;28;1057;-54
2021/11/25 10:01:50;;;;;;;;;;;16.70;99.90;;;;;;5027388;28;1910;-53
2021/11/25 10:04:19;;;;;;;;;;;16.80;99.90;;;;;;5073748;28;1055;-53
2021/11/25 10:06:51;;;;;;;;;;;16.80;99.90;;;;;;5036813;28;1297;-53
2021/11/25 10:09:52;;;;;;;;;;;17.00;99.90;;;;;;5073245;28;1103;-53
2021/11/25 10:12:26;;;;;;;;;;;17.10;99.90;;;;;;5015992;28;1449;-52
2021/11/25 10:15:24;;;;;;;;;;;17.20;99.90;;;;;;5074602;28;1730;-53
2021/11/25 10:17:51;;;;;;;;;;;17.20;99.90;;;;;;5040238;28;1047;-53
2021/11/25 10:20:22;;;;;;;;;;;17.20;99.90;;;;;;5023131;28;1977;-53
2021/11/25 10:23:01;;;;;;;;;;;17.20;99.90;;;;;;5071917;28;1277;-53
2021/11/25 10:25:45;;;;;;;;;;;17.10;99.90;;;;;;5072374;28;1319;-52
2021/11/25 10:28:31;;;;;;;;;;;17.00;99.90;;;;;;5071715;28;1134;-52
2021/11/25 10:31:24;;;;;;;;;;;17.00;99.90;;;;;;5070895;28;1386;-52
2021/11/25 10:34:00;;;;;;;;;;;17.00;99.90;;;;;;5015945;28;1434;-52
2021/11/25 10:42:15;;;;;;;;;;;16.70;99.90;;;;;;4970069;28;1914;-53
2021/11/25 10:44:46;;;;;;;;;;;16.70;99.90;;;;;;4976582;28;1148;-53
2021/11/25 10:47:28;;;;;;;;;;;16.70;99.90;;;;;;4991846;28;1096;-53
2021/11/25 10:49:57;;;;;;;;;;;16.70;99.90;;;;;;4976511;28;1614;-53
2021/11/25 10:52:41;;;;;;;;;;;16.70;99.90;;;;;;4995542;28;1334;-53
2021/11/25 10:55:10;;;;;;;;;;;16.80;99.90;;;;;;4997057;28;1023;-53
2021/11/25 10:58:01;;;;;;;;;;;16.80;99.90;;;;;;4997089;28;1164;-51
2021/11/25 11:00:37;;;;;;;;;;;16.80;99.90;;;;;;4962470;28;1965;-50
2021/11/25 11:03:29;;;;;;;;;;;16.80;99.90;;;;;;4997919;28;1070;-51
2021/11/25 11:06:02;;;;;;;;;;;16.80;99.90;;;;;;4997453;28;972;-51
2021/11/25 11:08:33;;;;;;;;;;;16.80;99.90;;;;;;4997190;28;1054;-50
2021/11/25 11:11:04;;;;;;;;;;;16.80;99.90;;;;;;4994512;28;1498;-51
2021/11/25 11:14:10;;;;;;;;;;;16.80;99.90;;;;;;4981103;28;1747;-51
2021/11/25 11:16:54;;;;;;;;;;;16.80;99.90;;;;;;5035085;28;1546;-51
2021/11/25 11:19:20;;;;;;;;;;;16.90;99.90;;;;;;5039388;28;1211;-51
2021/11/25 11:21:52;;;;;;;;;;;17.00;99.90;;;;;;5047808;28;1958;-51
2021/11/25 11:24:40;;;;;;;;;;;17.00;99.90;;;;;;5052138;28;1140;-51
2021/11/25 11:27:07;;;;;;;;;;;17.10;99.90;;;;;;5056227;28;857;-52
2021/11/25 11:29:35;;;;;;;;;;;17.00;99.90;;;;;;5035722;28;1386;-52
2021/11/25 11:32:06;;;;;;;;;;;17.00;99.90;;;;;;5005959;28;1063;-52
2021/11/25 11:34:33;;;;;;;;;;;16.90;99.90;;;;;;5055967;28;1104;-52
2021/11/25 11:36:59;;;;;;;;;;;16.80;99.90;;;;;;5054968;28;1130;-51
2021/11/25 11:39:28;;;;;;;;;;;16.90;99.90;;;;;;5056348;28;821;-53
2021/11/25 11:41:57;;;;;;;;;;;16.80;99.90;;;;;;5021235;28;1899;-51
2021/11/25 11:44:25;;;;;;;;;;;16.80;99.90;;;;;;5052953;28;1174;-51
2021/11/25 11:46:56;;;;;;;;;;;16.80;99.90;;;;;;5021106;28;1366;-51
2021/11/25 11:49:24;;;;;;;;;;;16.80;99.90;;;;;;5053609;28;997;-51
2021/11/25 11:52:10;;;;;;;;;;;16.70;99.90;;;;;;5056255;28;1298;-51
2021/11/25 11:54:48;;;;;;;;;;;16.70;99.90;;;;;;5074960;28;1044;-51
2021/11/25 11:57:33;;;;;;;;;;;16.70;99.90;;;;;;5053861;28;1246;-51
2021/11/25 12:00:00;;;;;;;;;;;16.70;99.90;;;;;;5074253;28;1181;-51
2021/11/25 12:02:45;;;;;;;;;;;16.70;99.90;;;;;;5073889;28;1969;-51
2021/11/25 12:05:34;;;;;;;;;;;16.60;99.90;;;;;;5076694;28;1063;-51
2021/11/25 12:08:19;;;;;;;;;;;16.60;99.90;;;;;;5042984;28;1498;-51
2021/11/25 12:11:12;;;;;;;;;;;16.60;99.90;;;;;;5074395;28;1293;-51
2021/11/25 12:13:58;;;;;;;;;;;16.60;99.90;;;;;;5070779;28;2113;-51
2021/11/25 12:16:27;;;;;;;;;;;16.60;99.90;;;;;;5076190;28;1166;-52
2021/11/25 12:18:53;;;;;;;;;;;16.60;99.90;;;;;;5071536;28;1226;-51
2021/11/25 12:21:48;;;;;;;;;;;16.60;99.90;;;;;;5070399;28;1902;-54
2021/11/25 12:24:16;;;;;;;;;;;16.60;99.90;;;;;;5056432;28;1218;-51
2021/11/25 12:27:02;;;;;;;;;;;16.50;99.90;;;;;;5071598;28;1296;-51
2021/11/25 12:29:49;;;;;;;;;;;16.40;99.90;;;;;;5071979;28;1245;-51
2021/11/25 12:35:21;;;;;;;;;;;16.10;99.90;;;;;;5074811;28;1416;-51
2021/11/25 12:37:48;;;;;;;;;;;16.30;99.90;;;;;;5071785;28;1123;-51
2021/11/25 12:40:21;;;;;;;;;;;16.50;99.90;;;;;;5057401;28;1409;-51
2021/11/25 12:42:56;;;;;;;;;;;16.50;99.90;;;;;;5074460;28;1297;-51
2021/11/25 12:45:31;;;;;;;;;;;16.60;99.90;;;;;;5073484;28;1407;-51
2021/11/25 12:48:08;;;;;;;;;;;16.70;99.90;;;;;;5072573;28;1361;-51
2021/11/25 12:50:37;;;;;;;;;;;16.80;99.90;;;;;;5067391;28;1017;-51
2021/11/25 12:56:28;;;;;;;;;;;16.90;99.90;;;;;;5085884;27;1513601;-51
2021/11/25 12:59:19;;;;;;;;;;;16.90;99.90;;;;;;5108569;27;935;-51
2021/11/25 13:01:47;;;;;;;;;;;16.80;99.90;;;;;;5070613;28;1221;-51
2021/11/25 13:04:17;;;;;;;;;;;16.70;99.90;;;;;;5086082;28;1662;-51
2021/11/25 13:06:47;;;;;;;;;;;16.80;99.90;;;;;;5070749;28;1497;-51
2021/11/25 13:09:15;;;;;;;;;;;16.80;99.90;;;;;;5071711;28;939;-51
2021/11/25 13:11:42;;;;;;;;;;;16.70;99.90;;;;;;5071176;28;1084;-51
2021/11/25 13:14:17;;;;;;;;;;;16.70;99.90;;;;;;5050968;28;1914;-52
2021/11/25 13:16:46;;;;;;;;;;;16.70;99.90;;;;;;5087192;28;1426;-52
2021/11/25 13:19:20;;;;;;;;;;;16.80;99.90;;;;;;5071047;28;949;-52
2021/11/25 13:21:47;;;;;;;;;;;16.70;99.90;;;;;;5071247;28;797;-52
2021/11/25 13:24:15;;;;;;;;;;;16.70;99.90;;;;;;5070819;28;980;-52
2021/11/25 13:27:01;;;;;;;;;;;16.60;99.90;;;;;;5057486;28;1307;-52
2021/11/25 13:29:29;;;;;;;;;;;16.60;99.90;;;;;;5069777;28;1166;-52
2021/11/25 13:31:57;;;;;;;;;;;16.50;99.90;;;;;;5069894;28;1237;-51
2021/11/25 13:34:24;;;;;;;;;;;16.50;99.90;;;;;;5071105;28;1879;-52
2021/11/25 13:36:55;;;;;;;;;;;16.50;99.90;;;;;;5069888;28;920;-52
2021/11/25 13:39:31;;;;;;;;;;;16.50;99.90;;;;;;5129403;27;1191;-52
2021/11/25 13:42:24;;;;;;;;;;;16.50;99.90;;;;;;5092103;27;1330;-52
2021/11/25 13:45:00;;;;;;;;;;;16.50;99.90;;;;;;5017250;28;1019;-52
2021/11/25 13:47:29;;;;;;;;;;;16.50;99.90;;;;;;5133738;27;756;-52
2021/11/25 13:50:10;;;;;;;;;;;16.50;99.90;;;;;;5133886;27;823;-52
2021/11/25 13:52:42;;;;;;;;;;;16.50;99.90;;;;;;5134670;27;834;-52
2021/11/25 13:55:11;;;;;;;;;;;16.40;99.90;;;;;;5152627;27;1961;-52
2021/11/25 13:57:39;;;;;;;;;;;16.40;99.90;;;;;;5152176;27;1026;-52
2021/11/25 14:00:24;;;;;;;;;;;16.30;99.90;;;;;;5151533;27;911;-52
2021/11/25 14:02:50;;;;;;;;;;;16.30;99.90;;;;;;5152910;27;815;-52
2021/11/25 14:05:16;;;;;;;;;;;16.20;99.90;;;;;;5152936;27;1293;-52
2021/11/25 14:07:43;;;;;;;;;;;16.20;99.90;;;;;;5119535;27;915;-52
2021/11/25 14:10:16;;;;;;;;;;;16.10;99.90;;;;;;5138859;27;1012;-52
2021/11/25 14:12:43;;;;;;;;;;;15.90;99.90;;;;;;5138610;27;985;-52
2021/11/25 14:15:12;;;;;;;;;;;15.70;99.90;;;;;;5138232;27;1901;-52
2021/11/25 14:17:45;;;;;;;;;;;15.50;99.90;;;;;;5138865;27;827;-52
2021/11/25 14:20:18;;;;;;;;;;;15.60;99.90;;;;;;5138250;27;899;-52
2021/11/25 14:22:44;;;;;;;;;;;15.70;99.90;;;;;;5138712;27;822;-52
2021/11/25 14:25:20;;;;;;;;;;;15.80;99.90;;;;;;5138202;27;1126;-52
2021/11/25 14:30:32;;;;;;;;;;;16.00;99.90;;;;;;5135725;27;1421;-52
2021/11/25 14:32:59;;;;;;;;;;;16.00;99.90;;;;;;5137308;27;708;-52
2021/11/25 14:35:29;;;;;;;;;;;16.10;99.90;;;;;;5128732;27;1901;-52
2021/11/25 14:37:56;;;;;;;;;;;16.10;99.90;;;;;;5119015;27;895;-52
2021/11/25 14:40:26;;;;;;;;;;;16.20;99.90;;;;;;5119362;27;1250;-52
2021/11/25 14:43:01;;;;;;;;;;;16.20;99.90;;;;;;5119573;28;799;-52
2021/11/25 14:45:28;;;;;;;;;;;16.20;99.90;;;;;;5135695;27;1151;-52
2021/11/25 14:47:54;;;;;;;;;;;16.30;99.90;;;;;;5138259;27;935;-52
2021/11/25 14:50:39;;;;;;;;;;;16.30;99.90;;;;;;5118774;28;896;-52
2021/11/25 14:53:14;;;;;;;;;;;16.30;99.90;;;;;;5100932;27;992;-52
2021/11/25 14:56:01;;;;;;;;;;;16.30;99.90;;;;;;5112943;28;1901;-52
2021/11/25 14:58:34;;;;;;;;;;;16.40;99.90;;;;;;5117384;28;1286;-52
2021/11/25 15:01:03;;;;;;;;;;;16.30;99.90;;;;;;5104751;28;1389;-52
2021/11/25 15:03:30;;;;;;;;;;;16.20;99.90;;;;;;5099453;28;1145;-52
2021/11/25 15:05:56;;;;;;;;;;;16.20;99.90;;;;;;5117292;28;884;-54
2021/11/25 15:08:22;;;;;;;;;;;16.20;99.90;;;;;;5117587;28;951;-53
2021/11/25 15:10:51;;;;;;;;;;;16.30;99.90;;;;;;5117071;28;1103;-52
2021/11/25 15:13:17;;;;;;;;;;;16.30;99.90;;;;;;5117163;28;1170;-52
2021/11/25 15:15:46;;;;;;;;;;;16.40;99.90;;;;;;5117285;28;1910;-52